Time;durP1;ratioP1;P1;durP2;ratioP2;P2;SDS_P1;SDS_P2;PMS_P1;PMS_P2;Temp;Humidity;BMP_temperature;BMP_pressure;BME280_temperature;BME280_humidity;BME280_pressure;Samples;Min_cycle;Max_cycle;Signal;HPM_P1;HPM_P2
2021/12/16 00:03:53;;;;;;;31.37;22.63;;;9.00;99.90;;;;;;5032083;28;20504;-54
2021/12/16 00:06:54;;;;;;;32.20;21.53;;;9.00;99.90;;;;;;5038856;28;20549;-54
2021/12/16 00:09:27;;;;;;;30.20;22.33;;;9.00;88.90;;;;;;5033551;28;20481;-55
2021/12/16 00:31:23;;;;;;;31.13;20.50;;;9.00;33.70;;;;;;5031688;28;20986;-55
2021/12/16 00:34:02;;;;;;;31.77;21.80;;;9.00;31.80;;;;;;5030645;28;20469;-54
2021/12/16 00:36:33;;;;;;;30.40;21.00;;;9.00;29.60;;;;;;5047067;28;20473;-54
2021/12/16 00:39:00;;;;;;;30.33;20.27;;;9.00;25.30;;;;;;5029014;28;20590;-55
2021/12/16 00:41:27;;;;;;;27.77;18.20;;;8.90;29.40;;;;;;5028619;28;21024;-54
2021/12/16 00:44:01;;;;;;;26.67;19.10;;;9.00;32.70;;;;;;5034708;28;20497;-55
2021/12/16 00:46:57;;;;;;;29.03;17.80;;;9.00;33.30;;;;;;5036596;28;20482;-55
2021/12/16 00:49:35;;;;;;;30.43;20.13;;;9.00;47.40;;;;;;5032574;28;20499;-54
2021/12/16 00:54:57;;;;;;;27.43;18.20;;;8.90;70.20;;;;;;5031853;28;20446;-54
2021/12/16 00:57:23;;;;;;;23.87;17.40;;;9.00;76.50;;;;;;5039090;28;20517;-54
2021/12/16 00:59:53;;;;;;;29.07;16.63;;;9.00;87.00;;;;;;5032870;28;20510;-56
2021/12/16 01:02:37;;;;;;;22.50;16.00;;;9.00;93.70;;;;;;5028252;28;20465;-54
2021/12/16 01:08:09;;;;;;;22.33;15.40;;;8.90;87.00;;;;;;5009253;28;20482;-53
2021/12/16 01:35:58;;;;;;;19.30;13.23;;;8.90;99.90;;;;;;5031090;28;20967;-54
2021/12/16 01:42:02;;;;;;;17.40;12.27;;;8.80;99.90;;;;;;5031280;28;20475;-54
2021/12/16 01:47:21;;;;;;;17.50;12.50;;;8.90;99.90;;;;;;5033184;28;20979;-54
2021/12/16 01:49:56;;;;;;;18.10;12.03;;;8.80;99.90;;;;;;5027648;28;20479;-54
2021/12/16 01:52:45;;;;;;;13.70;11.70;;;8.80;99.90;;;;;;5033193;28;20841;-54
2021/12/16 01:55:19;;;;;;;20.70;11.17;;;8.80;99.90;;;;;;5029992;28;20458;-54
2021/12/16 01:57:50;;;;;;;15.50;9.30;;;8.80;99.90;;;;;;5024037;28;21224;-54
2021/12/16 02:00:26;;;;;;;13.77;10.53;;;8.80;99.90;;;;;;5034193;28;21006;-55
2021/12/16 02:02:59;;;;;;;17.80;12.20;;;8.80;99.90;;;;;;5035267;28;20465;-54
2021/12/16 02:05:40;;;;;;;13.10;11.00;;;8.80;99.90;;;;;;5025390;28;20940;-55
2021/12/16 02:11:17;;;;;;;22.23;12.27;;;8.70;99.90;;;;;;5035755;28;20509;-54
2021/12/16 02:27:20;;;;;;;13.27;10.50;;;8.70;99.90;;;;;;5029324;28;20940;-55
2021/12/16 02:27:52;;;;;;;16.53;10.00;;;8.70;98.90;;;;;;5030543;28;20480;-55
2021/12/16 02:31:11;;;;;;;11.13;8.37;;;8.70;97.40;;;;;;5029835;28;20494;-55
2021/12/16 02:33:51;;;;;;;12.03;6.70;;;8.60;92.90;;;;;;5030717;28;20451;-54
2021/12/16 02:36:26;;;;;;;13.47;8.33;;;8.60;88.60;;;;;;5034051;28;20498;-54
2021/12/16 02:38:57;;;;;;;9.33;7.83;;;8.60;90.60;;;;;;5029349;28;20454;-55
2021/12/16 02:41:24;;;;;;;9.07;7.13;;;8.60;89.60;;;;;;5031069;28;20981;-54
2021/12/16 02:44:10;;;;;;;10.90;7.03;;;8.60;86.30;;;;;;5030068;28;20542;-54
2021/12/16 02:49:30;;;;;;;10.53;6.00;;;8.60;87.50;;;;;;5031949;28;20948;-54
2021/12/16 02:51:57;;;;;;;6.90;5.73;;;8.60;93.20;;;;;;5031450;28;21004;-53
2021/12/16 02:54:26;;;;;;;8.87;6.50;;;8.50;97.40;;;;;;5038400;28;20454;-54
2021/12/16 02:59:30;;;;;;;7.60;6.00;;;8.50;95.20;;;;;;5965690;22;20497;-53
2021/12/16 03:02:04;;;;;;;9.87;5.93;;;8.50;94.60;;;;;;5038221;28;20814;-53
2021/12/16 03:04:31;;;;;;;15.60;5.97;;;8.50;93.10;;;;;;5038428;28;20867;-53
2021/12/16 03:06:59;;;;;;;10.93;5.60;;;8.50;90.30;;;;;;5047901;28;20458;-52
2021/12/16 03:12:40;;;;;;;5.20;4.73;;;8.50;87.40;;;;;;5026945;28;20489;-52
2021/12/16 03:15:17;;;;;;;5.53;5.03;;;8.50;81.70;;;;;;5046952;28;20548;-51
2021/12/16 03:17:52;;;;;;;8.10;5.40;;;8.40;77.90;;;;;;5043426;28;20458;-51
2021/12/16 03:20:28;;;;;;;6.60;5.03;;;8.40;76.10;;;;;;5045461;28;20851;-52
2021/12/16 03:22:57;;;;;;;5.90;4.60;;;8.40;79.10;;;;;;5048305;28;20552;-52
2021/12/16 03:25:37;;;;;;;7.73;5.43;;;8.40;79.70;;;;;;5048697;28;20465;-52
2021/12/16 03:28:29;;;;;;;10.13;5.37;;;8.40;75.30;;;;;;5044304;28;20508;-52
2021/12/16 03:31:20;;;;;;;6.23;4.90;;;8.40;75.30;;;;;;5048076;28;20476;-52
2021/12/16 03:34:09;;;;;;;10.03;5.47;;;8.40;77.00;;;;;;5038326;28;20548;-52
2021/12/16 03:36:49;;;;;;;6.43;5.53;;;8.40;89.30;;;;;;5049470;28;20446;-53
2021/12/16 03:39:18;;;;;;;11.27;5.47;;;8.40;99.30;;;;;;5042689;28;20512;-53
2021/12/16 03:41:46;;;;;;;7.20;5.10;;;8.50;99.90;;;;;;5045021;28;21081;-53
2021/12/16 03:44:17;;;;;;;7.87;6.40;;;8.40;98.80;;;;;;5044174;28;20561;-53
2021/12/16 03:46:49;;;;;;;7.60;5.80;;;8.40;99.80;;;;;;5046976;28;20480;-53
2021/12/16 03:49:19;;;;;;;8.80;6.80;;;8.40;99.90;;;;;;5044099;28;20574;-53
2021/12/16 03:51:50;;;;;;;8.70;6.33;;;8.40;99.90;;;;;;5044278;28;20592;-52
2021/12/16 03:54:20;;;;;;;11.80;6.63;;;8.40;99.90;;;;;;5045759;28;20572;-54
2021/12/16 03:56:48;;;;;;;10.37;6.47;;;8.40;99.90;;;;;;5041907;28;20485;-52
2021/12/16 03:59:18;;;;;;;9.33;6.90;;;8.40;92.70;;;;;;5040552;28;20545;-52
2021/12/16 04:01:45;;;;;;;8.40;5.97;;;8.40;95.10;;;;;;5049211;28;20501;-52
2021/12/16 04:04:12;;;;;;;13.90;6.60;;;8.40;91.40;;;;;;5050600;28;20537;-52
2021/12/16 04:06:39;;;;;;;10.27;6.73;;;8.40;88.30;;;;;;5046810;28;20548;-52
2021/12/16 04:09:08;;;;;;;8.53;6.47;;;8.40;88.40;;;;;;5043383;28;20578;-52
2021/12/16 04:11:39;;;;;;;14.30;6.97;;;8.40;90.70;;;;;;5046668;28;21045;-53
2021/12/16 04:14:09;;;;;;;7.40;6.70;;;8.40;88.60;;;;;;5050613;28;20833;-53
2021/12/16 04:16:39;;;;;;;8.40;7.07;;;8.40;90.50;;;;;;5044283;28;20453;-52
2021/12/16 04:19:17;;;;;;;12.47;7.00;;;8.30;88.20;;;;;;5051892;28;20541;-52
2021/12/16 04:21:47;;;;;;;8.57;7.63;;;8.40;78.60;;;;;;5050990;28;20544;-54
2021/12/16 04:24:14;;;;;;;18.03;8.67;;;8.30;72.30;;;;;;5048165;28;20493;-51
2021/12/16 04:26:44;;;;;;;14.30;8.73;;;8.30;69.20;;;;;;5040179;28;20642;-53
2021/12/16 04:29:13;;;;;;;10.83;7.67;;;8.30;56.30;;;;;;5052180;28;20572;-52
2021/12/16 04:31:41;;;;;;;12.87;7.93;;;8.30;58.70;;;;;;5049406;28;20453;-51
2021/12/16 04:34:08;;;;;;;8.80;7.60;;;8.20;50.80;;;;;;5051477;28;20541;-52
2021/12/16 04:36:36;;;;;;;10.43;7.33;;;8.20;48.80;;;;;;5050882;28;20883;-52
2021/12/16 04:39:08;;;;;;;13.37;9.80;;;8.20;46.40;;;;;;5051092;28;20489;-53
2021/12/16 04:41:35;;;;;;;11.13;7.70;;;8.20;51.00;;;;;;5042385;28;20485;-53
2021/12/16 04:44:02;;;;;;;12.40;7.70;;;8.20;47.00;;;;;;5047639;28;20615;-53
2021/12/16 04:46:31;;;;;;;12.07;8.20;;;8.30;50.80;;;;;;5045434;28;20869;-52
2021/12/16 04:49:00;;;;;;;11.23;8.63;;;8.20;50.60;;;;;;5048326;28;21107;-53
2021/12/16 04:51:29;;;;;;;15.20;8.30;;;8.20;40.00;;;;;;5048098;28;20556;-53
2021/12/16 04:53:56;;;;;;;12.03;8.20;;;8.20;21.20;;;;;;5047073;28;21033;-52
2021/12/16 04:56:23;;;;;;;12.77;8.30;;;8.10;99.90;;;;;;5041655;28;20551;-52
2021/12/16 04:58:52;;;;;;;13.03;7.97;;;8.10;99.90;;;;;;5042913;28;20584;-52
2021/12/16 05:01:20;;;;;;;15.40;7.87;;;8.10;99.90;;;;;;5047326;28;20593;-52
2021/12/16 05:03:48;;;;;;;14.50;8.37;;;8.10;99.90;;;;;;5048508;28;20540;-52
2021/12/16 05:06:15;;;;;;;12.10;8.30;;;8.00;99.90;;;;;;5049299;28;20465;-52
2021/12/16 05:08:42;;;;;;;11.70;7.73;;;8.00;99.90;;;;;;5049677;28;20568;-54
2021/12/16 05:11:13;;;;;;;11.80;9.00;;;7.90;99.90;;;;;;5049434;28;20582;-53
2021/12/16 05:13:40;;;;;;;14.60;8.67;;;7.90;99.90;;;;;;5052451;28;20466;-53
2021/12/16 05:16:07;;;;;;;12.27;8.37;;;7.90;99.90;;;;;;5048280;28;20837;-53
2021/12/16 05:18:37;;;;;;;11.47;8.33;;;7.80;99.90;;;;;;5049900;28;20528;-52
2021/12/16 05:21:08;;;;;;;12.80;8.80;;;7.90;99.90;;;;;;5048253;28;20509;-53
2021/12/16 05:26:21;;;;;;;14.40;10.10;;;7.80;99.90;;;;;;5047172;28;20448;-52
2021/12/16 05:28:52;;;;;;;15.13;8.73;;;7.80;94.10;;;;;;5045522;28;20492;-52
2021/12/16 05:31:20;;;;;;;15.23;9.07;;;7.80;88.60;;;;;;5053033;28;20472;-52
2021/12/16 05:33:48;;;;;;;12.23;9.07;;;7.80;87.90;;;;;;5050302;28;20549;-53
2021/12/16 05:36:16;;;;;;;12.60;9.13;;;7.80;79.90;;;;;;5048442;28;20504;-53
2021/12/16 05:38:42;;;;;;;12.20;8.60;;;7.80;79.20;;;;;;5049994;28;21003;-53
2021/12/16 05:41:11;;;;;;;10.83;9.10;;;7.80;72.50;;;;;;5049377;28;20600;-52
2021/12/16 05:43:39;;;;;;;19.93;10.00;;;7.80;76.20;;;;;;5044473;28;20851;-53
2021/12/16 05:46:07;;;;;;;17.33;10.20;;;7.80;70.00;;;;;;5049329;28;20496;-52
2021/12/16 05:48:37;;;;;;;18.37;10.47;;;7.80;62.20;;;;;;5046347;28;20460;-52
2021/12/16 05:51:07;;;;;;;11.70;9.87;;;7.70;61.50;;;;;;5051642;28;20975;-52
2021/12/16 05:53:36;;;;;;;13.20;10.00;;;7.80;62.80;;;;;;5047825;28;20545;-52
2021/12/16 05:56:03;;;;;;;14.10;10.13;;;7.70;55.70;;;;;;5046819;28;20556;-53
2021/12/16 05:58:30;;;;;;;13.93;11.30;;;7.80;54.80;;;;;;5050976;28;20493;-52
2021/12/16 06:01:00;;;;;;;18.17;9.87;;;7.70;55.40;;;;;;5049515;28;20489;-53
2021/12/16 06:03:27;;;;;;;17.93;10.90;;;7.70;55.50;;;;;;5051685;28;20493;-52
2021/12/16 06:05:55;;;;;;;15.43;11.57;;;7.70;55.00;;;;;;5051488;28;20556;-52
2021/12/16 06:08:21;;;;;;;12.63;10.17;;;7.80;54.60;;;;;;5049400;28;20457;-52
2021/12/16 06:11:16;;;;;;;17.30;10.93;;;7.80;57.30;;;;;;5045624;28;20592;-52
2021/12/16 06:13:49;;;;;;;19.90;12.30;;;7.80;61.40;;;;;;5041820;28;20457;-52
2021/12/16 06:27:16;;;;;;;14.90;10.90;;;7.80;69.70;;;;;;5045971;28;20495;-54
2021/12/16 06:29:47;;;;;;;17.53;10.73;;;7.80;72.10;;;;;;5048737;28;20999;-52
2021/12/16 06:32:15;;;;;;;12.23;10.30;;;7.80;72.60;;;;;;5045841;28;20549;-52
2021/12/16 06:34:42;;;;;;;14.57;10.50;;;7.80;77.30;;;;;;5045288;28;21034;-52
2021/12/16 06:37:09;;;;;;;12.33;10.47;;;7.80;87.30;;;;;;5046951;28;20869;-52
2021/12/16 06:39:36;;;;;;;16.77;10.30;;;7.80;85.80;;;;;;5049098;28;20556;-52
2021/12/16 06:42:06;;;;;;;13.27;11.07;;;7.80;97.20;;;;;;5050070;28;20541;-52
2021/12/16 06:44:40;;;;;;;25.90;13.43;;;7.80;95.90;;;;;;5044702;28;20457;-52
2021/12/16 06:47:11;;;;;;;20.20;10.07;;;7.80;99.40;;;;;;5048893;28;20446;-53
2021/12/16 06:49:40;;;;;;;16.47;10.40;;;7.80;99.90;;;;;;5046431;28;20493;-53
2021/12/16 06:52:11;;;;;;;14.10;9.93;;;7.90;99.90;;;;;;5039657;28;20462;-52
2021/12/16 06:54:51;;;;;;;15.57;9.83;;;7.80;99.90;;;;;;5034895;28;20469;-52
2021/12/16 06:57:22;;;;;;;15.17;9.33;;;7.90;99.90;;;;;;5049896;28;21026;-52
2021/12/16 06:59:56;;;;;;;17.03;10.87;;;7.90;99.90;;;;;;5045458;28;20994;-53
2021/12/16 07:02:41;;;;;;;13.03;9.27;;;7.90;99.90;;;;;;5045811;28;20466;-53
2021/12/16 07:05:12;;;;;;;17.60;11.20;;;7.80;99.90;;;;;;5046358;28;20563;-53
2021/12/16 07:07:39;;;;;;;14.63;9.90;;;7.90;99.90;;;;;;5044416;28;20541;-53
2021/12/16 07:10:09;;;;;;;16.40;10.47;;;7.90;99.90;;;;;;5048437;28;21077;-52
2021/12/16 07:12:37;;;;;;;12.93;9.00;;;7.90;99.90;;;;;;5039840;28;20498;-53
2021/12/16 07:15:09;;;;;;;14.20;10.03;;;7.90;99.90;;;;;;5048759;28;20469;-54
2021/12/16 07:17:36;;;;;;;11.20;9.10;;;7.80;99.90;;;;;;5041749;28;20496;-53
2021/12/16 07:20:04;;;;;;;11.80;9.90;;;7.80;99.90;;;;;;5041813;28;20562;-53
2021/12/16 07:22:31;;;;;;;15.63;9.83;;;7.90;99.90;;;;;;5049282;28;20580;-52
2021/12/16 07:24:57;;;;;;;12.60;10.20;;;7.90;98.30;;;;;;5050506;28;20529;-52
2021/12/16 07:27:24;;;;;;;13.60;9.93;;;7.90;96.60;;;;;;5044485;28;20549;-53
2021/12/16 07:29:51;;;;;;;16.70;9.53;;;8.00;92.80;;;;;;5038073;28;20588;-52
2021/12/16 07:32:19;;;;;;;15.77;10.17;;;8.00;89.50;;;;;;5041217;28;20461;-53
2021/12/16 07:34:45;;;;;;;13.83;10.20;;;8.10;99.90;;;;;;5041426;28;20583;-52
2021/12/16 07:37:12;;;;;;;10.43;8.63;;;8.10;99.90;;;;;;5041161;28;20553;-53
2021/12/16 07:39:41;;;;;;;16.70;10.43;;;8.10;99.90;;;;;;5040623;28;21067;-52
2021/12/16 07:42:11;;;;;;;15.03;9.90;;;8.10;99.90;;;;;;5050391;28;20441;-52
2021/12/16 07:44:38;;;;;;;18.37;9.33;;;8.10;99.90;;;;;;5041180;28;20494;-51
2021/12/16 07:47:09;;;;;;;14.33;9.93;;;8.10;99.90;;;;;;5048445;28;20544;-52
2021/12/16 07:49:40;;;;;;;15.67;9.33;;;8.10;99.90;;;;;;5045144;28;20496;-53
2021/12/16 07:52:09;;;;;;;14.75;9.40;;;8.10;99.90;;;;;;5049032;28;21021;-54
2021/12/16 07:54:36;;;;;;;10.40;9.30;;;8.20;89.20;;;;;;5050332;28;20349;-54
2021/12/16 07:57:04;;;;;;;13.60;8.90;;;8.20;99.90;;;;;;5049558;28;20903;-54
2021/12/16 07:59:33;;;;;;;14.50;10.23;;;8.30;99.90;;;;;;5050207;28;20573;-59
2021/12/16 08:02:00;;;;;;;13.53;9.60;;;8.20;99.90;;;;;;5046735;28;20541;-53
2021/12/16 08:04:29;;;;;;;15.30;10.40;;;8.20;99.90;;;;;;5054476;28;20562;-54
2021/12/16 08:06:59;;;;;;;15.00;10.07;;;8.20;99.90;;;;;;5050876;28;20469;-52
2021/12/16 08:09:26;;;;;;;16.43;10.70;;;8.10;99.90;;;;;;5049963;28;20486;-53
2021/12/16 08:11:53;;;;;;;13.83;10.10;;;8.10;99.90;;;;;;5052118;28;20552;-53
2021/12/16 08:14:21;;;;;;;14.03;10.20;;;8.10;89.80;;;;;;5050508;28;20552;-53
2021/12/16 08:16:48;;;;;;;16.03;10.63;;;8.20;86.40;;;;;;5047492;28;20461;-53
2021/12/16 08:19:15;;;;;;;15.07;10.20;;;8.10;93.10;;;;;;5054263;28;20559;-52
2021/12/16 08:21:43;;;;;;;16.13;11.50;;;8.10;86.10;;;;;;5049401;28;20538;-52
2021/12/16 08:24:15;;;;;;;15.03;10.43;;;8.10;80.70;;;;;;5050602;28;21008;-52
2021/12/16 08:26:42;;;;;;;21.27;10.23;;;8.10;84.10;;;;;;5050508;28;20455;-53
2021/12/16 08:29:09;;;;;;;19.00;10.30;;;8.10;85.00;;;;;;5048669;28;20941;-53
2021/12/16 08:31:36;;;;;;;16.17;10.77;;;8.10;68.20;;;;;;5049234;28;20585;-52
2021/12/16 08:34:04;;;;;;;17.67;10.00;;;8.20;70.00;;;;;;5050341;28;20557;-52
2021/12/16 08:36:31;;;;;;;19.83;11.50;;;8.10;72.70;;;;;;5050559;28;20462;-54
2021/12/16 08:38:58;;;;;;;12.00;9.63;;;8.10;66.30;;;;;;5049514;28;20472;-53
2021/12/16 08:41:31;;;;;;;11.50;9.70;;;8.10;60.20;;;;;;5050356;28;20899;-54
2021/12/16 08:43:58;;;;;;;12.00;10.13;;;8.00;55.80;;;;;;5050398;28;20897;-54
2021/12/16 08:46:27;;;;;;;13.40;10.10;;;8.00;53.20;;;;;;5050298;28;20454;-52
2021/12/16 08:48:54;;;;;;;12.33;10.10;;;8.10;41.50;;;;;;5050215;28;20990;-53
2021/12/16 08:51:23;;;;;;;14.13;10.30;;;8.10;44.60;;;;;;5048637;28;20515;-53
2021/12/16 08:53:51;;;;;;;21.70;10.80;;;8.00;43.70;;;;;;5053338;28;20525;-54
2021/12/16 08:56:18;;;;;;;13.13;9.40;;;8.10;33.90;;;;;;5050665;28;20508;-54
2021/12/16 08:58:46;;;;;;;11.87;10.23;;;8.10;46.10;;;;;;5046599;28;20485;-54
2021/12/16 09:01:16;;;;;;;14.30;9.60;;;8.10;36.50;;;;;;5042461;28;20567;-53
2021/12/16 09:03:43;;;;;;;14.60;9.37;;;8.20;31.00;;;;;;5048462;28;20549;-53
2021/12/16 09:06:10;;;;;;;14.80;9.83;;;8.20;27.70;;;;;;5051743;28;20838;-54
2021/12/16 09:08:38;;;;;;;8.77;7.83;;;8.20;32.30;;;;;;5050555;28;20549;-53
2021/12/16 09:11:07;;;;;;;15.97;8.20;;;8.20;27.60;;;;;;5050810;28;20572;-53
2021/12/16 09:13:37;;;;;;;10.70;8.17;;;8.20;36.80;;;;;;5064805;22;20853;-48
2021/12/16 09:16:07;;;;;;;13.43;9.60;;;8.30;33.50;;;;;;5074635;28;20547;-47
2021/12/16 09:18:41;;;;;;;13.77;8.10;;;8.30;32.70;;;;;;5072098;28;20887;-47
2021/12/16 09:21:08;;;;;;;11.07;8.87;;;8.30;43.10;;;;;;5072416;28;20480;-48
2021/12/16 09:23:35;;;;;;;13.30;8.73;;;8.30;38.30;;;;;;5079276;28;20500;-46
2021/12/16 09:26:02;;;;;;;16.40;8.33;;;8.30;34.20;;;;;;5067364;28;20888;-47
2021/12/16 09:28:28;;;;;;;10.20;8.47;;;8.40;36.90;;;;;;5068533;28;20566;-46
2021/12/16 09:30:55;;;;;;;13.23;8.90;;;8.40;43.80;;;;;;5063340;28;20627;-48
2021/12/16 09:33:25;;;;;;;12.17;9.00;;;8.40;48.90;;;;;;5071488;28;21036;-48
2021/12/16 09:35:56;;;;;;;12.53;9.23;;;8.40;43.90;;;;;;5059960;28;20456;-47
2021/12/16 09:38:23;;;;;;;14.80;9.33;;;8.40;40.50;;;;;;5067168;28;20548;-47
2021/12/16 09:40:54;;;;;;;11.73;8.60;;;8.40;46.30;;;;;;5068111;28;20449;-52
2021/12/16 09:43:24;;;;;;;12.30;8.97;;;8.40;42.60;;;;;;5066650;28;21400;-48
2021/12/16 09:45:52;;;;;;;11.57;9.30;;;8.40;57.70;;;;;;5069114;28;20493;-46
2021/12/16 09:48:18;;;;;;;12.13;8.73;;;8.40;46.80;;;;;;5069448;28;20473;-46
2021/12/16 09:50:47;;;;;;;13.53;8.87;;;8.40;44.60;;;;;;5069259;28;20568;-47
2021/12/16 09:53:13;;;;;;;12.73;8.23;;;8.40;44.50;;;;;;5064764;28;20512;-47
2021/12/16 09:55:43;;;;;;;12.87;8.90;;;8.40;46.30;;;;;;5069082;28;20885;-46
2021/12/16 09:58:10;;;;;;;22.33;8.80;;;8.40;41.50;;;;;;5064450;28;20461;-47
2021/12/16 10:00:37;;;;;;;16.77;8.93;;;8.50;33.10;;;;;;5063783;28;20551;-48
2021/12/16 10:03:05;;;;;;;21.33;9.30;;;8.40;36.70;;;;;;5070486;28;20998;-47
2021/12/16 10:05:34;;;;;;;12.67;9.03;;;8.50;30.40;;;;;;5061998;28;20547;-48
2021/12/16 10:08:05;;;;;;;12.60;9.03;;;8.50;26.60;;;;;;5066400;28;20969;-46
2021/12/16 10:10:32;;;;;;;11.70;9.70;;;8.50;25.80;;;;;;5066496;28;20925;-46
2021/12/16 10:13:01;;;;;;;12.63;9.20;;;8.60;24.40;;;;;;5062939;28;20552;-48
2021/12/16 10:18:19;;;;;;;8.70;7.77;;;8.70;24.40;;;;;;5068542;28;21047;-46
2021/12/16 10:20:50;;;;;;;9.90;8.60;;;8.80;24.20;;;;;;5068818;28;20539;-46
2021/12/16 10:23:21;;;;;;;12.03;9.03;;;8.80;34.80;;;;;;5063137;28;20557;-48
2021/12/16 10:25:50;;;;;;;10.30;8.53;;;8.80;49.00;;;;;;5063736;28;20548;-46
2021/12/16 10:28:23;;;;;;;11.20;8.70;;;8.80;58.80;;;;;;5066382;28;20531;-48
2021/12/16 10:30:54;;;;;;;10.87;7.83;;;8.80;65.10;;;;;;5059349;28;20483;-47
2021/12/16 10:33:27;;;;;;;9.63;7.63;;;8.80;68.10;;;;;;5059448;28;20622;-48
2021/12/16 10:36:08;;;;;;;7.87;6.70;;;8.90;73.00;;;;;;5065011;28;20458;-48
2021/12/16 10:38:38;;;;;;;9.33;7.27;;;8.90;80.90;;;;;;5057556;28;20549;-48
2021/12/16 10:41:07;;;;;;;19.23;7.53;;;8.90;82.60;;;;;;5065661;28;21018;-47
2021/12/16 10:43:38;;;;;;;13.10;7.83;;;9.00;89.10;;;;;;5067692;28;20503;-48
2021/12/16 10:46:08;;;;;;;12.40;8.03;;;9.00;99.90;;;;;;5068612;28;20493;-48
2021/12/16 10:48:37;;;;;;;12.60;6.80;;;9.00;99.90;;;;;;5060812;28;20454;-47
2021/12/16 10:51:11;;;;;;;8.70;7.20;;;9.10;99.90;;;;;;5059052;28;20576;-46
2021/12/16 10:54:06;;;;;;;7.27;6.57;;;9.50;99.90;;;;;;5063937;28;20555;-46
2021/12/16 10:56:39;;;;;;;7.60;6.37;;;9.70;99.90;;;;;;5059786;28;20521;-47
2021/12/16 10:59:09;;;;;;;7.07;6.40;;;10.10;76.20;;;;;;5068632;28;20518;-48
2021/12/16 11:01:56;;;;;;;9.97;6.57;;;10.00;55.50;;;;;;5063766;28;20539;-48
2021/12/16 11:04:27;;;;;;;6.13;5.63;;;9.80;58.60;;;;;;5068822;28;20530;-47
2021/12/16 11:06:57;;;;;;;13.93;5.90;;;9.70;46.60;;;;;;5067274;28;21053;-48
2021/12/16 11:09:34;;;;;;;10.10;6.37;;;9.70;38.90;;;;;;5067684;28;20484;-47
2021/12/16 11:12:21;;;;;;;7.70;5.90;;;9.60;82.70;;;;;;5060190;28;20915;-46
2021/12/16 11:14:53;;;;;;;4.93;4.53;;;9.60;22.50;;;;;;5066691;28;20579;-46
2021/12/16 11:17:21;;;;;;;5.60;5.20;;;9.60;40.80;;;;;;5068827;28;20465;-47
2021/12/16 11:19:53;;;;;;;8.70;5.90;;;9.70;34.50;;;;;;5069243;28;20535;-47
2021/12/16 11:22:23;;;;;;;6.73;5.23;;;9.70;38.10;;;;;;5068194;28;20488;-49
2021/12/16 11:24:53;;;;;;;9.00;5.00;;;9.90;55.90;;;;;;5058357;28;20543;-48
2021/12/16 11:27:37;;;;;;;7.83;6.10;;;10.00;63.90;;;;;;5056392;28;20947;-46
2021/12/16 11:30:36;;;;;;;6.53;5.67;;;9.90;78.90;;;;;;5069511;28;20500;-47
2021/12/16 11:33:15;;;;;;;5.47;4.93;;;10.10;68.20;;;;;;5008681;28;20594;-48
2021/12/16 11:35:58;;;;;;;5.97;4.47;;;10.40;99.90;;;;;;5056229;28;20541;-48
2021/12/16 11:38:32;;;;;;;3.90;3.60;;;10.30;99.90;;;;;;5068401;28;20461;-48
2021/12/16 11:41:06;;;;;;;3.30;3.10;;;10.20;99.90;;;;;;5061092;28;20543;-47
2021/12/16 11:43:48;;;;;;;5.77;3.47;;;10.00;99.90;;;;;;5059916;28;20559;-47
2021/12/16 11:46:25;;;;;;;3.03;2.83;;;10.10;99.90;;;;;;5065113;28;20541;-47
2021/12/16 11:48:55;;;;;;;7.43;3.20;;;9.90;99.90;;;;;;5066438;28;20543;-48
2021/12/16 11:51:25;;;;;;;5.00;3.37;;;10.00;99.90;;;;;;5059539;28;21116;-49
2021/12/16 11:53:55;;;;;;;5.30;4.07;;;10.10;99.90;;;;;;5060905;28;21060;-48
2021/12/16 11:56:39;;;;;;;6.37;3.10;;;10.10;99.90;;;;;;5060892;28;20544;-48
2021/12/16 11:59:07;;;;;;;4.00;3.70;;;10.00;99.90;;;;;;5060826;28;20509;-47
2021/12/16 12:01:36;;;;;;;4.53;4.13;;;10.00;99.90;;;;;;5066638;28;20882;-48
2021/12/16 12:04:05;;;;;;;5.40;3.80;;;10.00;99.90;;;;;;5072115;28;21034;-49
2021/12/16 12:06:32;;;;;;;5.77;4.20;;;10.10;99.90;;;;;;5068720;28;20540;-48
2021/12/16 12:09:00;;;;;;;3.73;3.43;;;10.00;99.90;;;;;;5057300;28;20464;-48
2021/12/16 12:11:30;;;;;;;4.07;3.70;;;9.80;99.90;;;;;;5064241;28;20542;-48
2021/12/16 12:14:00;;;;;;;2.90;2.60;;;9.90;99.90;;;;;;5065745;28;20886;-48
2021/12/16 12:16:33;;;;;;;3.40;3.03;;;10.10;99.90;;;;;;5067454;28;20535;-46
2021/12/16 12:19:03;;;;;;;2.60;2.40;;;10.60;20.30;;;;;;5068047;28;20467;-46
2021/12/16 12:21:34;;;;;;;3.70;2.67;;;10.60;26.40;;;;;;5064294;28;20861;-47
2021/12/16 12:24:05;;;;;;;4.03;2.70;;;11.30;38.60;;;;;;5063368;28;20581;-47
2021/12/16 12:26:35;;;;;;;2.30;2.20;;;12.20;99.90;;;;;;5069019;28;20817;-50
2021/12/16 12:29:08;;;;;;;3.80;1.97;;;12.20;99.90;;;;;;5062262;28;20525;-51
2021/12/16 12:31:38;;;;;;;3.83;2.47;;;12.00;99.90;;;;;;5067220;28;20572;-50
2021/12/16 12:34:06;;;;;;;3.27;1.97;;;12.00;99.90;;;;;;5065145;28;20556;-51
2021/12/16 12:36:33;;;;;;;3.07;1.90;;;11.80;99.90;;;;;;5067949;28;20472;-49
2021/12/16 12:39:02;;;;;;;2.23;2.10;;;11.40;99.90;;;;;;5071229;28;20548;-50
2021/12/16 12:41:29;;;;;;;3.30;2.20;;;11.50;99.90;;;;;;5060359;28;20503;-50
2021/12/16 12:43:57;;;;;;;8.30;1.80;;;11.80;99.90;;;;;;5063674;28;20572;-50
2021/12/16 12:46:25;;;;;;;2.00;1.80;;;11.40;99.90;;;;;;5057069;28;20548;-50
2021/12/16 12:48:53;;;;;;;3.07;1.67;;;11.40;99.90;;;;;;5066114;28;20548;-50
2021/12/16 12:51:32;;;;;;;1.77;1.67;;;11.10;99.90;;;;;;5065517;28;20485;-50
2021/12/16 12:53:59;;;;;;;4.40;1.77;;;10.50;93.20;;;;;;5065246;28;20560;-50
2021/12/16 12:56:33;;;;;;;4.57;1.63;;;10.50;66.10;;;;;;5060163;28;20461;-50
2021/12/16 12:59:06;;;;;;;3.23;1.73;;;10.70;54.60;;;;;;5064384;28;20461;-52
2021/12/16 13:01:38;;;;;;;4.93;2.37;;;11.10;97.90;;;;;;5069793;28;20453;-51
2021/12/16 13:04:10;;;;;;;4.90;2.10;;;11.10;99.90;;;;;;5061759;28;20512;-51
2021/12/16 13:06:59;;;;;;;2.90;2.00;;;10.80;99.90;;;;;;5066474;28;20547;-50
2021/12/16 13:09:32;;;;;;;3.70;1.70;;;11.10;99.90;;;;;;5067956;28;20500;-50
2021/12/16 13:12:00;;;;;;;1.97;1.53;;;10.70;99.90;;;;;;5067905;28;20476;-50
2021/12/16 13:14:45;;;;;;;2.60;1.50;;;10.70;99.90;;;;;;5069269;28;20564;-50
2021/12/16 13:23:19;;;;;;;4.03;1.67;;;10.40;94.70;;;;;;5068509;28;20464;-50
2021/12/16 13:23:31;;;;;;;5.33;2.47;;;10.20;64.60;;;;;;5066541;28;20487;-50
2021/12/16 13:26:24;;;;;;;4.97;2.00;;;10.10;56.40;;;;;;5057970;28;20479;-50
2021/12/16 13:29:02;;;;;;;4.07;1.90;;;10.10;52.80;;;;;;5064324;28;20488;-50
2021/12/16 13:31:40;;;;;;;4.40;2.10;;;10.10;57.10;;;;;;5065085;28;20495;-50
2021/12/16 13:34:26;;;;;;;3.90;1.73;;;10.10;61.90;;;;;;5059554;28;20491;-50
2021/12/16 13:36:56;;;;;;;3.50;1.67;;;10.50;99.90;;;;;;5060083;28;20460;-50
2021/12/16 13:39:29;;;;;;;4.70;1.80;;;10.30;99.90;;;;;;5056527;28;20497;-50
2021/12/16 13:42:04;;;;;;;7.30;2.10;;;10.50;99.90;;;;;;5071797;28;20453;-51
2021/12/16 13:44:48;;;;;;;4.83;2.17;;;10.40;99.90;;;;;;5062795;28;20892;-51
2021/12/16 13:47:28;;;;;;;6.73;2.23;;;10.30;99.90;;;;;;5057699;28;21056;-52
2021/12/16 14:02:36;;;;;;;6.43;2.33;;;10.30;99.30;;;;;;5060937;28;20428;-57
2021/12/16 14:05:18;;;;;;;8.63;2.20;;;10.10;90.50;;;;;;5057881;28;20460;-57
2021/12/16 14:07:58;;;;;;;4.60;2.10;;;9.80;82.90;;;;;;5069887;28;20457;-56
2021/12/16 14:10:36;;;;;;;5.57;2.03;;;9.40;38.00;;;;;;5060651;28;20450;-55
2021/12/16 14:16:36;;;;;;;5.10;2.37;;;8.90;99.90;;;;;;5127616;27;21071;-57
2021/12/16 14:25:14;;;;;;;9.90;2.57;;;8.60;99.90;;;;;;5119173;28;20869;-56
2021/12/16 14:39:43;;;;;;;5.07;2.40;;;8.20;99.90;;;;;;5112984;28;20497;-55
2021/12/16 14:42:20;;;;;;;6.20;2.10;;;8.10;99.90;;;;;;5111300;27;21159;-57
2021/12/16 14:45:15;;;;;;;5.73;2.37;;;8.00;99.90;;;;;;5112153;28;20990;-56
2021/12/16 14:48:05;;;;;;;4.67;2.00;;;8.00;99.90;;;;;;5124121;28;20961;-56
2021/12/16 14:50:35;;;;;;;4.03;2.00;;;7.90;99.90;;;;;;5111135;27;20534;-60
2021/12/16 14:53:21;;;;;;;6.87;3.20;;;7.90;99.90;;;;;;5109293;27;20479;-57
2021/12/16 14:55:51;;;;;;;7.37;2.27;;;7.80;99.90;;;;;;5116178;28;21074;-57
2021/12/16 14:58:21;;;;;;;4.50;2.03;;;7.70;99.90;;;;;;5115531;28;20501;-55
2021/12/16 15:00:52;;;;;;;4.97;3.20;;;7.60;99.90;;;;;;5114188;27;20547;-58
2021/12/16 15:03:21;;;;;;;10.37;4.30;;;7.60;85.50;;;;;;5118680;27;21025;-57
2021/12/16 15:05:51;;;;;;;5.67;3.00;;;7.50;82.30;;;;;;5121392;27;20469;-56
2021/12/16 15:08:25;;;;;;;9.47;3.50;;;7.40;75.20;;;;;;5115627;27;20468;-56
2021/12/16 15:10:52;;;;;;;6.30;2.73;;;7.40;70.80;;;;;;5126011;28;20442;-56
2021/12/16 15:13:24;;;;;;;3.80;2.57;;;7.20;70.90;;;;;;5116477;23;20600;-57
2021/12/16 15:42:42;;;;;;;6.70;2.60;;;6.70;99.90;;;;;;5032176;28;20904;-57
2021/12/16 15:43:45;;;;;;;12.27;4.53;;;6.60;99.90;;;;;;5029383;28;20466;-58
2021/12/16 15:46:12;;;;;;;7.57;2.87;;;6.60;99.90;;;;;;5033572;28;20931;-58
2021/12/16 15:48:39;;;;;;;9.20;4.97;;;6.50;99.90;;;;;;5027399;28;20534;-58
2021/12/16 15:51:10;;;;;;;12.80;4.00;;;6.50;99.90;;;;;;5028372;28;20546;-58